Time;durP1;ratioP1;P1;durP2;ratioP2;P2;SDS_P1;SDS_P2;PMS_P1;PMS_P2;Temp;Humidity;BMP_temperature;BMP_pressure;BME280_temperature;BME280_humidity;BME280_pressure;Samples;Min_cycle;Max_cycle;Signal;HPM_P1;HPM_P2
2023/04/12 00:00:37;;;;;;;3.15;1.70;;;;;;;8.72;100.00;97997.94;4170356;28;20295;-47
2023/04/12 00:02:40;;;;;;;3.28;1.63;;;;;;;8.88;100.00;98002.56;4187780;28;20613;-46
2023/04/12 00:04:43;;;;;;;5.38;2.00;;;;;;;8.74;100.00;97995.81;4160857;28;20287;-46
2023/04/12 00:06:47;;;;;;;7.30;1.88;;;;;;;8.79;100.00;97993.13;4177039;28;20232;-46
2023/04/12 00:08:49;;;;;;;3.13;2.13;;;;;;;8.76;100.00;97982.75;4169229;28;20260;-47
2023/04/12 00:10:51;;;;;;;4.75;2.03;;;;;;;8.72;100.00;97981.56;4176885;28;20232;-46
2023/04/12 00:12:53;;;;;;;3.75;1.77;;;;;;;8.62;100.00;97981.44;4168479;28;20239;-45
2023/04/12 00:14:55;;;;;;;2.08;1.90;;;;;;;8.72;100.00;97970.66;4168689;28;20209;-46
2023/04/12 00:16:56;;;;;;;5.10;1.65;;;;;;;8.74;100.00;97972.06;4172579;28;20228;-46
2023/04/12 00:19:00;;;;;;;2.83;1.85;;;;;;;8.76;100.00;97971.84;4172789;28;20208;-45
2023/04/12 00:21:02;;;;;;;3.72;1.52;;;;;;;8.75;100.00;97968.25;4197597;28;20207;-46
2023/04/12 00:23:04;;;;;;;5.35;2.92;;;;;;;8.66;100.00;97960.75;4170704;28;20227;-47
2023/04/12 00:25:06;;;;;;;3.10;1.95;;;;;;;8.46;100.00;97949.56;4177188;28;20223;-46
2023/04/12 00:27:08;;;;;;;1.70;1.60;;;;;;;8.34;100.00;97946.16;4177628;28;20234;-46
2023/04/12 00:29:09;;;;;;;3.50;1.55;;;;;;;8.29;100.00;97951.50;4167675;28;20310;-45
2023/04/12 00:31:11;;;;;;;4.35;1.85;;;;;;;8.58;100.00;97942.13;4155696;28;20304;-46
2023/04/12 00:33:13;;;;;;;3.53;1.73;;;;;;;8.50;100.00;97935.19;4170140;28;20212;-46
2023/04/12 00:35:15;;;;;;;5.65;2.15;;;;;;;8.22;100.00;97942.69;4155915;28;20959;-46
2023/04/12 00:37:16;;;;;;;2.33;1.83;;;;;;;8.15;100.00;97944.72;4176957;28;20239;-45
2023/04/12 00:39:18;;;;;;;2.10;1.70;;;;;;;8.33;100.00;97928.94;4156596;28;20248;-45
2023/04/12 00:41:23;;;;;;;3.17;1.65;;;;;;;8.29;100.00;97922.34;4186813;28;20207;-46
2023/04/12 00:43:26;;;;;;;2.97;1.83;;;;;;;8.47;100.00;97918.50;4169643;28;20291;-46
2023/04/12 00:45:27;;;;;;;2.58;1.92;;;;;;;8.52;100.00;97902.22;4175310;28;20244;-46
2023/04/12 00:47:29;;;;;;;4.53;2.17;;;;;;;8.34;100.00;97902.53;4160787;28;20722;-45
2023/04/12 00:49:32;;;;;;;5.72;1.70;;;;;;;8.18;100.00;97895.16;4167434;28;20231;-46
2023/04/12 00:51:34;;;;;;;2.72;2.03;;;;;;;8.25;100.00;97884.94;4170913;28;20291;-46
2023/04/12 00:53:37;;;;;;;1.73;1.45;;;;;;;8.26;100.00;97886.59;4176672;28;20204;-45
2023/04/12 00:55:43;;;;;;;1.40;1.30;;;;;;;8.25;100.00;97884.94;4160405;28;20295;-45
2023/04/12 00:57:45;;;;;;;2.35;1.60;;;;;;;8.17;100.00;97880.72;4175818;28;20311;-46
2023/04/12 00:59:47;;;;;;;2.60;1.70;;;;;;;8.30;100.00;97883.09;4169430;28;20655;-46
2023/04/12 01:01:49;;;;;;;4.47;1.75;;;;;;;8.17;100.00;97875.28;4169409;28;20281;-47
2023/04/12 01:04:25;;;;;;;2.85;1.65;;;;;;;8.24;100.00;97864.22;4176517;28;21100;-45
2023/04/12 01:06:52;;;;;;;4.10;1.40;;;;;;;8.11;100.00;97862.66;4168438;28;20543;-46
2023/04/12 01:09:01;;;;;;;2.28;1.85;;;;;;;8.04;100.00;97853.81;4158428;28;20259;-46
2023/04/12 01:11:23;;;;;;;2.97;1.73;;;;;;;8.01;100.00;97851.59;4167383;28;20241;-47
2023/04/12 01:13:31;;;;;;;3.78;2.05;;;;;;;8.01;100.00;97842.59;4176639;28;20235;-48
2023/04/12 01:15:38;;;;;;;1.50;1.40;;;;;;;7.98;100.00;97840.38;4176347;28;20249;-47
2023/04/12 01:17:48;;;;;;;3.80;1.63;;;;;;;7.99;100.00;97839.28;4168747;28;20324;-46
2023/04/12 01:19:57;;;;;;;4.97;1.58;;;;;;;7.97;100.00;97833.28;4176534;28;20732;-47
2023/04/12 01:22:15;;;;;;;2.72;1.52;;;;;;;8.03;100.00;97835.00;4177078;28;20211;-46
2023/04/12 01:24:42;;;;;;;6.55;2.40;;;;;;;7.99;100.00;97823.78;4186420;28;20734;-47
2023/04/12 01:26:47;;;;;;;3.92;1.80;;;;;;;7.85;100.00;97821.66;4166066;28;20229;-46
2023/04/12 01:28:51;;;;;;;3.15;1.55;;;;;;;7.97;100.00;97819.66;4168630;28;20331;-47
2023/04/12 01:30:54;;;;;;;3.17;1.80;;;;;;;7.90;100.00;97814.38;4161972;28;20292;-46
2023/04/12 01:32:59;;;;;;;3.33;1.33;;;;;;;7.85;100.00;97816.19;4175956;28;20906;-46
2023/04/12 01:35:02;;;;;;;4.78;1.27;;;;;;;7.91;100.00;97804.31;4184616;28;20253;-46
2023/04/12 01:37:04;;;;;;;4.05;1.48;;;;;;;8.03;100.00;97799.59;4167258;28;20280;-46
2023/04/12 01:39:06;;;;;;;3.67;1.65;;;;;;;7.90;100.00;97798.03;4166781;28;20584;-46
2023/04/12 01:41:08;;;;;;;5.00;2.08;;;;;;;7.81;100.00;97796.81;4166720;28;20339;-47
2023/04/12 01:43:12;;;;;;;3.47;1.48;;;;;;;7.77;100.00;97794.84;4178315;28;20266;-47
2023/04/12 01:45:13;;;;;;;3.72;1.77;;;;;;;7.72;100.00;97789.31;4172631;28;20244;-46
2023/04/12 01:47:15;;;;;;;3.13;1.60;;;;;;;7.74;100.00;97787.16;4191493;28;20310;-47
2023/04/12 01:49:18;;;;;;;6.25;1.70;;;;;;;7.79;100.00;97779.06;4168450;28;20224;-47
2023/04/12 01:51:57;;;;;;;3.90;1.60;;;;;;;7.72;100.00;97771.09;4178925;28;20219;-48
2023/04/12 01:54:09;;;;;;;2.05;1.73;;;;;;;7.67;100.00;97762.00;4171280;28;20697;-47
2023/04/12 01:56:12;;;;;;;2.15;1.88;;;;;;;7.68;100.00;97755.50;4173131;28;20203;-46
2023/04/12 01:58:20;;;;;;;4.07;1.75;;;;;;;7.74;100.00;97760.75;4187994;28;20259;-48
2023/04/12 02:00:22;;;;;;;3.40;1.45;;;;;;;7.65;100.00;97766.88;4162405;28;20266;-46
2023/04/12 02:02:24;;;;;;;2.40;1.70;;;;;;;7.64;100.00;97759.78;4169379;28;20663;-46
2023/04/12 02:04:26;;;;;;;3.60;1.90;;;;;;;7.73;100.00;97758.28;4172260;28;20220;-46
2023/04/12 02:06:28;;;;;;;3.20;1.48;;;;;;;7.75;100.00;97756.97;4162223;28;20650;-47
2023/04/12 02:08:30;;;;;;;2.60;1.63;;;;;;;7.68;100.00;97739.97;4202382;28;20209;-46
2023/04/12 02:10:35;;;;;;;4.50;2.05;;;;;;;7.63;100.00;97747.25;4173361;28;20785;-46
2023/04/12 02:12:40;;;;;;;1.65;1.55;;;;;;;7.68;100.00;97744.63;4170007;28;20213;-46
2023/04/12 02:14:42;;;;;;;3.97;2.28;;;;;;;7.68;100.00;97742.72;4170789;28;20208;-46
2023/04/12 02:16:45;;;;;;;2.83;1.58;;;;;;;7.85;100.00;97729.06;4178186;28;20307;-46
2023/04/12 02:18:47;;;;;;;2.40;2.03;;;;;;;7.70;100.00;97731.56;4169546;28;20625;-46
2023/04/12 02:20:48;;;;;;;1.65;1.23;;;;;;;7.76;100.00;97716.97;4171737;28;20291;-47
2023/04/12 02:22:50;;;;;;;1.58;1.38;;;;;;;7.84;100.00;97728.25;4171101;28;20203;-46
2023/04/12 02:24:54;;;;;;;2.55;1.60;;;;;;;7.84;100.00;97717.34;4168597;28;20665;-47
2023/04/12 02:26:57;;;;;;;4.80;1.92;;;;;;;7.78;100.00;97717.53;4157007;28;20351;-47
2023/04/12 02:28:59;;;;;;;3.05;2.00;;;;;;;7.76;100.00;97716.97;4188114;28;20289;-46
2023/04/12 02:31:05;;;;;;;11.00;2.20;;;;;;;7.87;100.00;97702.38;4157163;28;20216;-46
2023/04/12 02:33:10;;;;;;;2.17;1.77;;;;;;;7.96;100.00;97692.72;4172886;28;20208;-46
2023/04/12 02:35:18;;;;;;;3.20;1.60;;;;;;;7.90;100.00;97693.72;4178326;28;20643;-46
2023/04/12 02:37:23;;;;;;;1.98;1.52;;;;;;;7.80;100.00;97691.69;4167870;28;20641;-47
2023/04/12 02:39:25;;;;;;;3.50;1.50;;;;;;;7.75;100.00;97679.91;4162200;28;20200;-47
2023/04/12 02:41:27;;;;;;;4.20;2.30;;;;;;;7.86;100.00;97681.69;4162162;28;20209;-48
2023/04/12 02:43:28;;;;;;;1.70;1.60;;;;;;;7.88;100.00;97679.53;4168560;28;20299;-47
2023/04/12 02:45:30;;;;;;;2.92;1.40;;;;;;;7.88;100.00;97668.66;4160760;28;21433;-46
2023/04/12 02:47:32;;;;;;;5.38;1.55;;;;;;;7.94;100.00;97651.25;4178288;28;20310;-46
2023/04/12 02:49:33;;;;;;;2.38;2.17;;;;;;;7.97;100.00;97645.31;4174878;28;20228;-46
2023/04/12 02:51:37;;;;;;;3.30;1.80;;;;;;;7.81;100.00;97635.34;4161120;28;20205;-46
2023/04/12 02:53:38;;;;;;;2.67;1.33;;;;;;;7.78;100.00;97630.38;4168842;28;20212;-46
2023/04/12 02:55:40;;;;;;;2.97;2.03;;;;;;;7.76;100.00;97621.66;4168198;28;20693;-46
2023/04/12 02:57:46;;;;;;;2.70;1.35;;;;;;;7.70;100.00;97622.66;4178436;28;20307;-46
2023/04/12 02:59:52;;;;;;;1.45;1.35;;;;;;;7.69;100.00;97615.59;4170437;28;20232;-46
2023/04/12 03:01:53;;;;;;;2.33;1.48;;;;;;;7.73;100.00;97616.69;4170254;28;20300;-46
2023/04/12 03:03:55;;;;;;;4.75;1.90;;;;;;;7.80;100.00;97609.16;4154282;28;20225;-46
2023/04/12 03:05:58;;;;;;;4.97;2.00;;;;;;;7.73;100.00;97612.09;4201488;28;20240;-46
2023/04/12 03:07:59;;;;;;;3.47;1.83;;;;;;;7.68;100.00;97603.06;4171848;28;20224;-46
2023/04/12 03:10:05;;;;;;;2.50;2.20;;;;;;;7.63;100.00;97595.63;4193108;28;20697;-46
2023/04/12 03:12:07;;;;;;;3.08;2.17;;;;;;;7.64;100.00;97585.56;4169242;28;20247;-46
2023/04/12 03:14:09;;;;;;;4.05;1.60;;;;;;;7.71;100.00;97586.19;4186873;28;20240;-47
2023/04/12 03:16:28;;;;;;;4.15;2.13;;;;;;;7.82;100.00;97569.72;4171292;28;20212;-47
2023/04/12 03:18:30;;;;;;;2.60;2.38;;;;;;;7.74;100.00;97558.44;4178062;28;20220;-47
2023/04/12 03:20:32;;;;;;;1.88;1.55;;;;;;;7.64;100.00;97553.72;4170738;28;20200;-46
2023/04/12 03:22:35;;;;;;;5.53;2.22;;;;;;;7.67;100.00;97553.22;4169267;28;20295;-46
2023/04/12 03:24:36;;;;;;;3.08;1.70;;;;;;;7.66;100.00;97550.72;4175900;28;20231;-46
2023/04/12 03:26:38;;;;;;;1.73;1.40;;;;;;;7.65;100.00;97532.75;4187899;28;20309;-47
2023/04/12 03:28:40;;;;;;;3.17;1.70;;;;;;;7.66;100.00;97534.41;4172617;28;20239;-46
2023/04/12 03:30:42;;;;;;;3.17;1.83;;;;;;;7.61;100.00;97526.19;4177802;28;20283;-47
2023/04/12 03:32:44;;;;;;;2.15;1.55;;;;;;;7.65;100.00;97522.69;4201958;28;20211;-47
2023/04/12 03:34:46;;;;;;;3.05;1.40;;;;;;;7.68;100.00;97518.66;4193490;28;20366;-47
2023/04/12 03:36:47;;;;;;;4.40;1.50;;;;;;;7.76;100.00;97515.47;4192143;28;20307;-47
2023/04/12 03:38:49;;;;;;;2.17;1.65;;;;;;;7.72;100.00;97506.16;4178423;28;20674;-46
2023/04/12 03:40:51;;;;;;;1.95;1.65;;;;;;;7.79;100.00;97506.75;4177462;28;20295;-47
2023/04/12 03:42:53;;;;;;;2.40;1.63;;;;;;;7.72;100.00;97495.25;4168421;28;20278;-46
2023/04/12 03:44:55;;;;;;;1.77;1.35;;;;;;;7.78;100.00;97499.69;4171224;28;20210;-46
2023/04/12 03:46:57;;;;;;;2.30;1.45;;;;;;;7.73;100.00;97503.19;4177926;28;20227;-46
2023/04/12 03:48:59;;;;;;;2.28;2.00;;;;;;;7.84;100.00;97494.03;4178221;28;20501;-46
2023/04/12 03:51:07;;;;;;;7.78;2.10;;;;;;;7.91;100.00;97499.25;4175518;28;20287;-46
2023/04/12 03:53:10;;;;;;;5.88;1.92;;;;;;;7.79;100.00;97491.25;4167654;28;20212;-47
2023/04/12 03:55:12;;;;;;;2.65;1.50;;;;;;;7.84;100.00;97498.66;4200150;28;20554;-46
2023/04/12 03:57:15;;;;;;;2.35;1.65;;;;;;;7.80;100.00;97487.47;4165706;28;20725;-47
2023/04/12 03:59:16;;;;;;;5.75;1.70;;;;;;;7.79;100.00;97485.81;4171533;28;20300;-47
2023/04/12 04:01:18;;;;;;;2.72;1.55;;;;;;;7.74;100.00;97487.66;4171280;28;20291;-46
2023/04/12 04:03:25;;;;;;;1.80;1.30;;;;;;;7.79;100.00;97474.09;4168783;28;20204;-47
2023/04/12 04:05:29;;;;;;;3.78;1.30;;;;;;;7.86;100.00;97480.16;4169810;28;20203;-46
2023/04/12 04:07:31;;;;;;;2.17;1.33;;;;;;;7.83;100.00;97470.59;4170115;28;20252;-47
2023/04/12 04:09:33;;;;;;;2.20;1.50;;;;;;;7.81;100.00;97471.94;4193751;28;20254;-46
2023/04/12 04:11:36;;;;;;;1.58;1.48;;;;;;;7.79;100.00;97468.66;4160265;28;20209;-47
2023/04/12 04:13:38;;;;;;;1.92;1.65;;;;;;;7.75;100.00;97462.09;4186413;28;20238;-46
2023/04/12 04:15:40;;;;;;;6.35;1.65;;;;;;;7.68;100.00;97450.59;4169157;28;20244;-46
2023/04/12 04:17:41;;;;;;;2.15;1.55;;;;;;;7.69;100.00;97454.94;4160918;28;20252;-47
2023/04/12 04:19:43;;;;;;;4.05;1.88;;;;;;;7.65;100.00;97449.19;4170906;28;20201;-46
2023/04/12 04:21:45;;;;;;;2.58;1.67;;;;;;;7.77;100.00;97438.13;4177027;28;20290;-47
2023/04/12 04:23:47;;;;;;;2.28;1.73;;;;;;;7.74;100.00;97444.09;4174255;28;20291;-46
2023/04/12 04:25:52;;;;;;;2.33;1.55;;;;;;;7.80;100.00;97433.00;4172273;28;20208;-46
2023/04/12 04:27:53;;;;;;;9.77;1.90;;;;;;;7.67;100.00;97435.31;4161179;28;20670;-46
2023/04/12 04:29:58;;;;;;;1.60;1.50;;;;;;;7.74;100.00;97439.47;4177313;28;20986;-46
2023/04/12 04:32:00;;;;;;;1.52;1.02;;;;;;;7.77;100.00;97416.34;4152680;28;20906;-48
2023/04/12 04:34:04;;;;;;;1.40;1.17;;;;;;;7.63;100.00;97415.16;4185993;28;20246;-47
2023/04/12 04:36:06;;;;;;;1.30;1.20;;;;;;;7.67;100.00;97410.81;4176857;28;20222;-46
2023/04/12 04:38:09;;;;;;;2.35;1.33;;;;;;;7.68;100.00;97405.13;4169309;28;20223;-48
2023/04/12 04:40:11;;;;;;;1.75;1.65;;;;;;;7.66;100.00;97414.63;4176293;28;20262;-47
2023/04/12 04:42:12;;;;;;;1.73;1.63;;;;;;;7.69;100.00;97409.47;4193070;28;20293;-47
2023/04/12 04:44:14;;;;;;;2.28;1.73;;;;;;;7.68;100.00;97398.88;4166739;28;20647;-48
2023/04/12 04:46:19;;;;;;;2.80;1.80;;;;;;;7.80;100.00;97399.50;4159449;28;20295;-47
2023/04/12 04:48:22;;;;;;;2.53;1.52;;;;;;;7.81;100.00;97393.00;4167413;28;20254;-46
2023/04/12 04:50:26;;;;;;;2.70;1.73;;;;;;;7.89;100.00;97397.94;4169010;28;20318;-46
2023/04/12 04:52:28;;;;;;;2.25;1.85;;;;;;;7.93;100.00;97382.72;4192552;28;20225;-47
2023/04/12 04:54:31;;;;;;;1.75;1.48;;;;;;;8.00;100.00;97383.31;4153576;28;20212;-47
2023/04/12 04:56:33;;;;;;;2.65;1.77;;;;;;;7.99;100.00;97376.22;4168683;28;20208;-47
2023/04/12 04:58:35;;;;;;;1.20;1.20;;;;;;;7.84;100.00;97367.94;4168158;28;20244;-46
2023/04/12 05:00:37;;;;;;;1.48;1.38;;;;;;;7.97;100.00;97362.06;4169315;28;20201;-46
2023/04/12 05:02:41;;;;;;;1.50;1.40;;;;;;;7.94;100.00;97357.13;4161001;28;20268;-47
2023/04/12 05:04:43;;;;;;;1.45;1.33;;;;;;;7.97;100.00;97345.72;4167133;28;20217;-46
2023/04/12 05:06:45;;;;;;;2.03;1.42;;;;;;;7.93;100.00;97337.25;4187316;28;20254;-46
2023/04/12 05:08:47;;;;;;;1.23;1.13;;;;;;;7.92;100.00;97343.78;4170774;28;20242;-46
2023/04/12 05:10:52;;;;;;;1.80;1.70;;;;;;;7.87;100.00;97341.00;4168762;28;20742;-47
2023/04/12 05:12:53;;;;;;;2.22;2.00;;;;;;;7.96;100.00;97335.91;4169249;28;20204;-46
2023/04/12 05:14:55;;;;;;;1.30;1.20;;;;;;;7.97;100.00;97334.81;4168489;28;20633;-47
2023/04/12 05:17:12;;;;;;;1.73;1.55;;;;;;;7.97;100.00;97329.38;4155878;28;20235;-47
2023/04/12 05:19:13;;;;;;;1.77;1.67;;;;;;;7.95;100.00;97337.00;4195914;28;20310;-47
2023/04/12 05:21:15;;;;;;;1.52;1.42;;;;;;;7.96;100.00;97338.63;4172552;28;20207;-47
2023/04/12 05:23:17;;;;;;;3.65;1.50;;;;;;;7.97;100.00;97332.09;4179612;28;20239;-47
2023/04/12 05:25:19;;;;;;;3.10;1.70;;;;;;;8.00;100.00;97326.94;4187477;28;20934;-47
2023/04/12 05:27:21;;;;;;;1.50;1.40;;;;;;;8.06;100.00;97322.34;4168586;28;20244;-47
2023/04/12 05:29:23;;;;;;;2.80;1.73;;;;;;;8.04;100.00;97329.97;4162512;28;20216;-47
2023/04/12 05:31:25;;;;;;;2.08;1.83;;;;;;;8.01;100.00;97325.06;4172235;28;20236;-46
2023/04/12 05:33:27;;;;;;;1.50;1.40;;;;;;;7.99;100.00;97316.31;4173715;28;20315;-46
2023/04/12 05:35:31;;;;;;;1.70;1.60;;;;;;;7.99;100.00;97308.13;4185706;28;20207;-46
2023/04/12 05:37:33;;;;;;;2.63;2.13;;;;;;;7.94;100.00;97308.94;4176922;28;20223;-46
2023/04/12 05:39:34;;;;;;;1.60;1.50;;;;;;;8.01;100.00;97314.97;4178932;28;20292;-46
2023/04/12 05:41:36;;;;;;;1.70;1.60;;;;;;;8.03;100.00;97301.09;4173062;28;20247;-47
2023/04/12 05:43:38;;;;;;;2.58;1.75;;;;;;;8.09;100.00;97300.84;4179160;28;20219;-47
2023/04/12 05:45:40;;;;;;;1.77;1.40;;;;;;;8.02;100.00;97294.00;4157602;28;20705;-47
2023/04/12 05:47:42;;;;;;;1.90;1.80;;;;;;;8.03;100.00;97284.75;4165627;28;20228;-46
2023/04/12 05:49:44;;;;;;;1.65;1.55;;;;;;;8.06;100.00;97284.19;4179362;28;20326;-46
2023/04/12 05:51:45;;;;;;;2.38;1.70;;;;;;;8.11;100.00;97271.44;4193697;28;20199;-48
2023/04/12 05:53:59;;;;;;;1.95;1.85;;;;;;;8.18;100.00;97282.91;4183359;28;20243;-47
2023/04/12 05:56:01;;;;;;;1.55;1.20;;;;;;;8.21;100.00;97276.16;4170715;28;20242;-47
2023/04/12 05:58:02;;;;;;;2.33;1.30;;;;;;;8.24;100.00;97281.91;4159693;28;20733;-45
2023/04/12 06:00:15;;;;;;;1.95;1.77;;;;;;;8.28;100.00;97265.84;4179417;28;20234;-46
2023/04/12 06:02:17;;;;;;;6.63;1.73;;;;;;;8.28;100.00;97269.38;4168716;28;20203;-46
2023/04/12 06:04:19;;;;;;;1.83;1.73;;;;;;;8.40;100.00;97280.03;4162750;28;20263;-46
2023/04/12 06:06:21;;;;;;;1.73;1.63;;;;;;;8.40;100.00;97274.59;4172380;28;20204;-45
2023/04/12 06:08:23;;;;;;;2.17;1.50;;;;;;;8.48;100.00;97272.16;4172427;28;20248;-45
2023/04/12 06:10:25;;;;;;;1.38;1.27;;;;;;;8.45;100.00;97266.44;4171643;28;20251;-45
2023/04/12 06:12:32;;;;;;;1.70;1.60;;;;;;;8.42;100.00;97261.53;4169719;28;20670;-44
2023/04/12 06:14:34;;;;;;;3.42;1.67;;;;;;;8.39;100.00;97262.03;4152984;28;20231;-46
2023/04/12 06:16:36;;;;;;;2.38;1.63;;;;;;;8.47;100.00;97265.09;4173685;28;20243;-45
2023/04/12 06:18:40;;;;;;;2.33;1.40;;;;;;;8.50;100.00;97258.28;4162551;28;20251;-46
2023/04/12 06:20:42;;;;;;;1.75;1.50;;;;;;;8.53;100.00;97264.03;4170648;28;20222;-46
2023/04/12 06:22:43;;;;;;;1.15;1.15;;;;;;;8.55;100.00;97263.75;4156526;28;20271;-46
2023/04/12 06:24:45;;;;;;;4.07;1.55;;;;;;;8.51;100.00;97277.09;4187625;28;20238;-45
2023/04/12 06:26:47;;;;;;;1.50;1.40;;;;;;;8.51;100.00;97276.28;4157455;28;20261;-45
2023/04/12 06:28:48;;;;;;;2.38;1.50;;;;;;;8.45;100.00;97267.25;4190760;28;20215;-46
2023/04/12 06:30:50;;;;;;;1.45;1.35;;;;;;;8.45;100.00;97255.53;4192175;28;20783;-45
2023/04/12 06:32:52;;;;;;;2.30;1.60;;;;;;;8.46;100.00;97259.88;4169349;28;20629;-46
2023/04/12 06:34:54;;;;;;;2.05;1.30;;;;;;;8.42;100.00;97250.63;4170270;28;20204;-46
2023/04/12 06:36:56;;;;;;;3.70;2.58;;;;;;;8.41;100.00;97249.00;4159707;28;20252;-46
2023/04/12 06:38:58;;;;;;;6.72;2.10;;;;;;;8.43;100.00;97236.72;4160513;28;20659;-45
2023/04/12 06:41:00;;;;;;;2.30;1.83;;;;;;;8.45;100.00;97239.19;4177946;28;20737;-46
2023/04/12 06:43:02;;;;;;;2.00;1.42;;;;;;;8.42;100.00;97221.44;4160209;28;20208;-46
2023/04/12 06:45:04;;;;;;;6.80;1.85;;;;;;;8.50;100.00;97225.56;4184999;28;20648;-47
2023/04/12 06:47:06;;;;;;;2.85;1.60;;;;;;;8.49;100.00;97213.03;4188191;28;20632;-47
2023/04/12 06:49:08;;;;;;;1.70;1.60;;;;;;;8.46;100.00;97219.84;4170195;28;20248;-47
2023/04/12 06:51:10;;;;;;;1.75;1.65;;;;;;;8.49;100.00;97207.59;4184653;28;20262;-47
2023/04/12 06:53:14;;;;;;;3.45;1.42;;;;;;;8.53;100.00;97203.22;4159081;28;20240;-47
2023/04/12 06:55:16;;;;;;;2.53;1.70;;;;;;;8.43;100.00;97192.31;4167825;28;20303;-46
2023/04/12 06:57:18;;;;;;;3.38;1.70;;;;;;;8.44;100.00;97189.31;4151694;28;20628;-46
2023/04/12 06:59:20;;;;;;;3.03;1.90;;;;;;;8.48;100.00;97184.13;4177626;28;20239;-46
2023/04/12 07:01:21;;;;;;;1.92;1.40;;;;;;;8.43;100.00;97160.41;4168961;28;20201;-46
2023/04/12 07:03:23;;;;;;;4.80;1.50;;;;;;;8.43;100.00;97159.59;4170780;28;20215;-47
2023/04/12 07:05:25;;;;;;;1.48;1.38;;;;;;;8.36;100.00;97159.03;4154511;28;20240;-46
2023/04/12 07:07:27;;;;;;;2.25;2.05;;;;;;;8.39;100.00;97153.03;4200915;28;20254;-46
2023/04/12 07:09:32;;;;;;;1.88;1.60;;;;;;;8.45;100.00;97151.97;4189048;28;20721;-46
2023/04/12 07:11:34;;;;;;;3.20;1.50;;;;;;;8.45;100.00;97141.06;4191833;28;20231;-47
2023/04/12 07:13:36;;;;;;;1.70;1.38;;;;;;;8.43;100.00;97137.78;4159406;28;20291;-47
2023/04/12 07:15:37;;;;;;;1.70;1.60;;;;;;;8.53;100.00;97145.97;4160009;28;20207;-47
2023/04/12 07:17:39;;;;;;;4.30;2.15;;;;;;;8.54;100.00;97134.00;4165804;28;20235;-47
2023/04/12 07:19:42;;;;;;;2.38;1.75;;;;;;;8.49;100.00;97131.25;4181242;28;20215;-47
2023/04/12 07:21:44;;;;;;;2.05;1.40;;;;;;;8.56;100.00;97137.25;4169987;28;20292;-48
2023/04/12 07:23:49;;;;;;;2.33;1.45;;;;;;;8.64;100.00;97134.81;4183641;28;20241;-47
2023/04/12 07:25:51;;;;;;;3.15;1.73;;;;;;;8.60;100.00;97122.81;4170837;28;20305;-47
2023/04/12 07:27:53;;;;;;;3.08;1.55;;;;;;;8.58;100.00;97118.72;4163713;28;20291;-46
2023/04/12 07:29:56;;;;;;;2.67;1.73;;;;;;;8.63;100.00;97122.25;4170556;28;20291;-46
2023/04/12 07:31:59;;;;;;;3.40;1.33;;;;;;;8.66;100.00;97127.19;4169429;28;20691;-47
2023/04/12 07:34:01;;;;;;;1.23;1.02;;;;;;;8.60;100.00;97111.06;4168185;28;20298;-47
2023/04/12 07:36:04;;;;;;;2.28;1.42;;;;;;;8.70;100.00;97106.44;4168609;28;20208;-47
2023/04/12 07:38:05;;;;;;;1.90;1.40;;;;;;;8.64;100.00;97106.72;4168243;28;20267;-46
2023/04/12 07:40:07;;;;;;;4.18;2.00;;;;;;;8.65;100.00;97114.66;4168011;28;20668;-47
2023/04/12 07:42:09;;;;;;;1.77;1.48;;;;;;;8.68;100.00;97118.75;4168680;28;20226;-47
2023/04/12 07:44:11;;;;;;;3.40;1.48;;;;;;;8.70;100.00;97111.91;4186214;28;20207;-47
2023/04/12 07:46:13;;;;;;;2.13;1.73;;;;;;;8.70;100.00;97102.91;4167720;28;20295;-47
2023/04/12 07:48:15;;;;;;;1.88;1.65;;;;;;;8.72;100.00;97114.34;4185752;28;20267;-46
2023/04/12 07:50:17;;;;;;;4.60;1.30;;;;;;;8.71;100.00;97101.81;4176837;28;20239;-47
2023/04/12 07:52:18;;;;;;;2.05;1.80;;;;;;;8.78;100.00;97094.19;4152878;28;20209;-47
2023/04/12 07:54:20;;;;;;;4.63;2.40;;;;;;;8.74;100.00;97095.84;4150418;28;20297;-48
2023/04/12 07:56:24;;;;;;;1.90;1.50;;;;;;;8.81;100.00;97096.38;4201171;28;20740;-47
2023/04/12 07:58:26;;;;;;;2.45;1.55;;;;;;;8.82;100.00;97098.81;4167961;28;20791;-47
2023/04/12 08:00:27;;;;;;;1.60;1.50;;;;;;;8.86;100.00;97093.63;4181157;28;20294;-46
2023/04/12 08:02:29;;;;;;;2.42;1.45;;;;;;;8.84;100.00;97098.53;4199454;28;20199;-46
2023/04/12 08:04:31;;;;;;;3.67;2.22;;;;;;;8.84;100.00;97101.28;4201271;28;20215;-46
2023/04/12 08:06:33;;;;;;;1.67;1.50;;;;;;;8.91;100.00;97085.44;4170794;28;20247;-46
2023/04/12 08:08:35;;;;;;;2.17;1.50;;;;;;;8.90;100.00;97100.19;4166682;28;20846;-46
2023/04/12 08:10:38;;;;;;;2.90;1.50;;;;;;;8.93;100.00;97095.00;4170317;28;20767;-46
2023/04/12 08:12:40;;;;;;;5.05;1.77;;;;;;;8.93;100.00;97085.97;4172806;28;20206;-47
2023/04/12 08:14:41;;;;;;;2.72;1.40;;;;;;;8.96;100.00;97088.19;4168597;28;20220;-46
2023/04/12 08:16:43;;;;;;;2.90;2.10;;;;;;;8.92;100.00;97087.09;4168867;28;20251;-46
2023/04/12 08:18:45;;;;;;;3.00;2.08;;;;;;;8.96;100.00;97077.28;4186313;28;20203;-47
2023/04/12 08:20:48;;;;;;;2.38;1.70;;;;;;;8.99;100.00;97082.16;4167791;28;20295;-46
2023/04/12 08:22:51;;;;;;;2.00;1.80;;;;;;;8.99;100.00;97077.53;4166823;28;20205;-46
2023/04/12 08:24:52;;;;;;;2.47;2.22;;;;;;;9.02;100.00;97081.63;4187230;28;20250;-46
2023/04/12 08:26:54;;;;;;;6.93;2.03;;;;;;;9.09;100.00;97087.63;4160372;28;20239;-47
2023/04/12 08:28:57;;;;;;;2.00;1.80;;;;;;;9.05;100.00;97079.16;4181751;28;20307;-47
2023/04/12 08:30:59;;;;;;;3.33;2.03;;;;;;;9.07;100.00;97089.78;4169137;28;21233;-47
2023/04/12 08:33:01;;;;;;;2.15;1.65;;;;;;;9.10;100.00;97076.44;4166223;28;20208;-47
2023/04/12 08:35:04;;;;;;;2.03;1.85;;;;;;;9.11;100.00;97071.78;4184881;28;20688;-47
2023/04/12 08:37:06;;;;;;;2.15;1.58;;;;;;;9.15;100.00;97075.59;4168344;28;20749;-47
2023/04/12 08:39:08;;;;;;;2.00;1.90;;;;;;;9.22;100.00;97070.66;4151440;28;20296;-47
2023/04/12 08:41:10;;;;;;;1.63;1.52;;;;;;;9.24;100.00;97071.19;4181641;28;20210;-46
2023/04/12 08:43:12;;;;;;;2.47;2.28;;;;;;;9.20;100.00;97065.47;4173993;28;20274;-46
2023/04/12 08:45:14;;;;;;;3.75;1.70;;;;;;;9.23;100.00;97055.94;4155397;28;20213;-46
2023/04/12 08:47:16;;;;;;;2.10;2.00;;;;;;;9.27;100.00;97057.81;4167542;28;20709;-46
2023/04/12 08:49:17;;;;;;;2.78;1.60;;;;;;;9.30;100.00;97056.44;4167570;28;20234;-47
2023/04/12 08:51:20;;;;;;;1.80;1.70;;;;;;;9.36;100.00;97047.16;4203210;28;20222;-46
2023/04/12 08:53:22;;;;;;;1.80;1.27;;;;;;;9.39;100.00;97054.78;4172441;28;20204;-46
2023/04/12 08:55:24;;;;;;;2.22;2.13;;;;;;;9.46;100.00;97049.84;4177541;28;20239;-46
2023/04/12 08:57:26;;;;;;;2.50;1.83;;;;;;;9.55;100.00;97057.16;4169204;28;20236;-46
2023/04/12 08:59:30;;;;;;;4.85;1.42;;;;;;;9.58;100.00;97042.97;4177526;28;20239;-46
2023/04/12 09:01:32;;;;;;;1.73;1.60;;;;;;;9.59;100.00;97041.88;4171469;28;20257;-48
2023/04/12 09:03:35;;;;;;;2.33;2.08;;;;;;;9.63;100.00;97039.41;4172107;28;20215;-47
2023/04/12 09:05:37;;;;;;;3.67;3.13;;;;;;;9.68;100.00;97037.47;4171454;28;20200;-47
2023/04/12 09:07:40;;;;;;;3.38;2.60;;;;;;;9.75;100.00;97043.44;4189315;28;20265;-45
2023/04/12 09:09:42;;;;;;;4.32;2.10;;;;;;;9.81;100.00;97034.09;4190364;28;20613;-48
2023/04/12 09:11:44;;;;;;;4.45;1.88;;;;;;;9.80;100.00;97039.84;4172801;28;20247;-47
2023/04/12 09:13:46;;;;;;;2.53;2.30;;;;;;;9.86;100.00;97031.34;4184272;28;20212;-46
2023/04/12 09:15:49;;;;;;;3.13;1.92;;;;;;;9.91;100.00;97034.06;4179197;28;20212;-46
2023/04/12 09:18:07;;;;;;;3.50;2.95;;;;;;;9.95;100.00;97028.84;4186747;28;20315;-46
2023/04/12 09:20:16;;;;;;;2.28;2.00;;;;;;;9.94;100.00;97025.28;4170931;28;20222;-47
2023/04/12 09:22:18;;;;;;;1.85;1.70;;;;;;;9.99;100.00;97014.34;4186051;28;20928;-46
2023/04/12 09:24:23;;;;;;;2.55;1.73;;;;;;;10.05;100.00;97015.16;4171507;28;20212;-46
2023/04/12 09:26:31;;;;;;;3.22;1.27;;;;;;;10.06;100.00;97017.59;4172997;28;20647;-47
2023/04/12 09:28:33;;;;;;;2.00;1.80;;;;;;;10.11;100.00;97014.03;4152422;28;20243;-47
2023/04/12 09:30:40;;;;;;;1.65;1.55;;;;;;;10.16;100.00;97014.00;4169186;28;20247;-46
2023/04/12 09:32:43;;;;;;;3.50;1.55;;;;;;;10.23;100.00;97017.22;4171527;28;20220;-47
2023/04/12 09:34:55;;;;;;;3.35;1.70;;;;;;;10.21;100.00;97016.69;4177547;28;20206;-46
2023/04/12 09:36:57;;;;;;;1.90;1.52;;;;;;;10.28;100.00;97009.00;4184546;28;20346;-46
2023/04/12 09:39:04;;;;;;;3.50;1.67;;;;;;;10.28;100.00;96995.31;4169055;28;20903;-47
2023/04/12 09:41:21;;;;;;;1.63;1.52;;;;;;;10.33;100.00;97000.72;4171246;28;20219;-47